LOBO55 KLSV-KHND
Flight info
| Callsign | LOBO55 |
|---|---|
| Flight time | 0h 7m |
| Altitude | VFR |
| Route | VFR SOUTHK |
| Aircraft | TEX2/L-VGD/C |
Departure
| Time | 2026-05-04 00:12 |
|---|---|
| Airport | Nellis Air Force Base (KLSV) |
Arrival
| Time | 2026-05-04 00:19 |
|---|---|
| Airport | Henderson Executive Airport (KHND) |
| Time | Latitude | Longitude | Altitude | Speed | Heading |
|---|---|---|---|---|---|
| 2026-05-03 23:50 | 36.24389 | -115.03185 | 1870 ft | 0 kts | 184° |
| 2026-05-04 00:00 | 36.24367 | -115.03186 | 1872 ft | 6 kts | 179° |
| 2026-05-04 00:01 | 36.24355 | -115.03145 | 1872 ft | 6 kts | 26° |
| 2026-05-04 00:01 | 36.24392 | -115.03144 | 1872 ft | 6 kts | 5° |
| 2026-05-04 00:01 | 36.24468 | -115.03138 | 1872 ft | 12 kts | 2° |
| 2026-05-04 00:01 | 36.24549 | -115.03136 | 1871 ft | 12 kts | 0° |
| 2026-05-04 00:02 | 36.24630 | -115.03133 | 1872 ft | 12 kts | 3° |
| 2026-05-04 00:02 | 36.24716 | -115.03126 | 1871 ft | 12 kts | 23° |
| 2026-05-04 00:02 | 36.24728 | -115.03021 | 1872 ft | 15 kts | 91° |
| 2026-05-04 00:02 | 36.24726 | -115.02876 | 1869 ft | 19 kts | 93° |
| 2026-05-04 00:03 | 36.24721 | -115.02736 | 1868 ft | 13 kts | 90° |
| 2026-05-04 00:03 | 36.24721 | -115.02715 | 1868 ft | 2 kts | 92° |
| 2026-05-04 00:03 | 36.24718 | -115.02658 | 1868 ft | 12 kts | 91° |
| 2026-05-04 00:03 | 36.24717 | -115.02626 | 1866 ft | 0 kts | 90° |
| 2026-05-04 00:11 | 36.24717 | -115.02624 | 1872 ft | 3 kts | 91° |
| 2026-05-04 00:11 | 36.24710 | -115.02509 | 1870 ft | 17 kts | 120° |
| 2026-05-04 00:11 | 36.24567 | -115.02619 | 1870 ft | 57 kts | 216° |
| 2026-05-04 00:11 | 36.24055 | -115.03193 | 2109 ft | 131 kts | 220° |
| 2026-05-04 00:12 | 36.23259 | -115.04033 | 2594 ft | 151 kts | 217° |
| 2026-05-04 00:12 | 36.22537 | -115.04844 | 3093 ft | 141 kts | 221° |
| 2026-05-04 00:12 | 36.21701 | -115.05581 | 3311 ft | 151 kts | 209° |
| 2026-05-04 00:12 | 36.20763 | -115.06181 | 3589 ft | 155 kts | 206° |
| 2026-05-04 00:13 | 36.19739 | -115.06758 | 3726 ft | 166 kts | 204° |
| 2026-05-04 00:13 | 36.18623 | -115.07314 | 3755 ft | 181 kts | 200° |
| 2026-05-04 00:13 | 36.17422 | -115.07865 | 3820 ft | 188 kts | 202° |
| 2026-05-04 00:13 | 36.16170 | -115.08479 | 3861 ft | 194 kts | 202° |
| 2026-05-04 00:14 | 36.14934 | -115.09116 | 4000 ft | 194 kts | 204° |
| 2026-05-04 00:14 | 36.13676 | -115.09794 | 3901 ft | 202 kts | 202° |
| 2026-05-04 00:14 | 36.12374 | -115.10481 | 3823 ft | 202 kts | 205° |
| 2026-05-04 00:14 | 36.12018 | -115.10682 | 3874 ft | 195 kts | 205° |
| 2026-05-04 00:15 | 36.10837 | -115.11409 | 3938 ft | 172 kts | 207° |
| 2026-05-04 00:15 | 36.09794 | -115.12098 | 3851 ft | 166 kts | 207° |
| 2026-05-04 00:15 | 36.08796 | -115.12758 | 3709 ft | 159 kts | 207° |
| 2026-05-04 00:15 | 36.07824 | -115.13317 | 3708 ft | 149 kts | 202° |
| 2026-05-04 00:16 | 36.06856 | -115.13768 | 3613 ft | 152 kts | 189° |
| 2026-05-04 00:16 | 36.05811 | -115.13758 | 3628 ft | 149 kts | 177° |
| 2026-05-04 00:16 | 36.04790 | -115.13617 | 3630 ft | 148 kts | 178° |
| 2026-05-04 00:16 | 36.03752 | -115.13498 | 3507 ft | 142 kts | 180° |
| 2026-05-04 00:17 | 36.02795 | -115.13457 | 3418 ft | 140 kts | 183° |
| 2026-05-04 00:17 | 36.01846 | -115.13491 | 3268 ft | 124 kts | 181° |
| 2026-05-04 00:17 | 36.01072 | -115.13513 | 3129 ft | 101 kts | 181° |
| 2026-05-04 00:17 | 36.00379 | -115.13513 | 2890 ft | 99 kts | 181° |
| 2026-05-04 00:18 | 35.99719 | -115.13477 | 2808 ft | 97 kts | 182° |
| 2026-05-04 00:18 | 35.99060 | -115.13494 | 2729 ft | 84 kts | 192° |
| 2026-05-04 00:18 | 35.98519 | -115.13490 | 2553 ft | 76 kts | 185° |
| 2026-05-04 00:18 | 35.97972 | -115.13529 | 2448 ft | 81 kts | 185° |
| 2026-05-04 00:19 | 35.97472 | -115.13543 | 2446 ft | 59 kts | 182° |
| 2026-05-04 00:19 | 35.97126 | -115.13550 | 2450 ft | 32 kts | 180° |
| 2026-05-04 00:19 | 35.97081 | -115.13572 | 2456 ft | 5 kts | 314° |
| 2026-05-04 00:19 | 35.97091 | -115.13602 | 2456 ft | 7 kts | 276° |
| 2026-05-04 00:20 | 35.97093 | -115.13627 | 2453 ft | 0 kts | 271° |
| 2026-05-04 00:20 | 35.97121 | -115.13645 | 2452 ft | 7 kts | 354° |
| 2026-05-04 00:21 | 35.97214 | -115.13645 | 2449 ft | 18 kts | 2° |
| 2026-05-04 00:21 | 35.97358 | -115.13643 | 2445 ft | 22 kts | 0° |
| 2026-05-04 00:21 | 35.97443 | -115.13699 | 2446 ft | 16 kts | 265° |
| 2026-05-04 00:21 | 35.97407 | -115.13805 | 2445 ft | 7 kts | 178° |
| 2026-05-04 00:22 | 35.97405 | -115.13805 | 2444 ft | 0 kts | 178° |